Hlavní strana
METAR-TAF:

METAR-TAF

Letiště :

Paganella, Itálie

zeměpisná šířka: 46-09N, zeměpisná délka: 011-02E, výška: 2125 m

Aktuální stav počasí

Zpráva byla vytvořena před 1 hodinou a 8 minutami, v 05:55 UTC
Západojihozápadní vítr 14 kt
Teplota 11°C
Vlhkost vzduchu 82%
Tlak 1025 hPa
Viditelnost 10 km a více
Žádná oblačnost pod 1500 m, nevyskytují se cumulonimby.

METAR: LIVP 190555Z 24014KT CAVOK 11/08 Q1025 RMK BKN BKN200 MON LIB VAL FOSCHIA SKC SUP VIS MIN 9999

Čas: 09:03 (07:03 UTC)


TAF: chybějící

Stav a předpovědi počasí z více než 4 000 letišť (zprávy METAR a TAF).

Červené a žluté tečky na mapě představují dostupné meteorologické stanice.

Když kurzor umístíte na tečku, zobrazí se název stanice.

Pak kliknutím zobrazíte stav a předpověď počasí.

Chcete-li změnit mapu, kliknutím na zelené tlačítko se znaménkem +mapu přiblížíte, kliknutím na zelené tlačítko se znaménkem – mapu oddálíte a kliknutím na zelené šipky přejdete na sousední mapy.


METAR-TAF: